Time;durP1;ratioP1;P1;durP2;ratioP2;P2;SDS_P1;SDS_P2;PMS_P1;PMS_P2;Temp;Humidity;BMP_temperature;BMP_pressure;BME280_temperature;BME280_humidity;BME280_pressure;Samples;Min_cycle;Max_cycle;Signal;HPM_P1;HPM_P2
2022/11/23 00:01:15;;;;;;;22.88;8.18;;;;;;;9.96;93.94;95935.50;4985752;28;20484;-58
2022/11/23 00:03:44;;;;;;;34.63;11.20;;;;;;;9.77;93.54;95888.84;4984081;28;20058;-58
2022/11/23 00:06:11;;;;;;;22.58;7.93;;;;;;;9.82;94.40;95918.91;4985547;28;20065;-58
2022/11/23 00:08:38;;;;;;;7.80;5.25;;;;;;;9.31;94.17;95826.41;4985457;28;20054;-57
2022/11/23 00:11:05;;;;;;;14.90;6.85;;;;;;;9.98;93.89;95922.09;4983779;28;20085;-57
2022/11/23 00:13:34;;;;;;;14.35;5.63;;;;;;;9.84;94.93;95913.78;4984918;28;20050;-58
2022/11/23 00:16:04;;;;;;;11.55;5.35;;;;;;;9.70;94.92;95893.59;4985253;28;20077;-58
2022/11/23 00:18:31;;;;;;;15.52;6.65;;;;;;;9.84;96.02;95916.53;4985134;28;20054;-57
2022/11/23 00:20:58;;;;;;;16.48;7.50;;;;;;;9.85;95.80;95907.03;4985132;28;20065;-58
2022/11/23 00:23:24;;;;;;;14.93;6.18;;;;;;;9.49;96.65;95865.91;4985309;28;20050;-57
2022/11/23 00:25:51;;;;;;;30.73;10.98;;;;;;;9.52;98.10;95881.69;4985385;28;20054;-58
2022/11/23 00:28:18;;;;;;;25.63;9.05;;;;;;;9.67;98.87;95884.13;4993405;28;20053;-57
2022/11/23 00:30:49;;;;;;;17.58;7.22;;;;;;;9.20;99.74;95821.63;5006810;28;20496;-57
2022/11/23 00:33:17;;;;;;;10.90;5.60;;;;;;;9.67;100.00;95878.59;5008456;28;20058;-57
2022/11/23 00:35:43;;;;;;;12.60;6.53;;;;;;;9.42;100.00;95893.53;5008145;28;20104;-57
2022/11/23 00:38:10;;;;;;;9.25;5.68;;;;;;;9.53;100.00;95892.38;5009059;28;20057;-57
2022/11/23 00:40:37;;;;;;;10.98;6.45;;;;;;;9.33;100.00;95846.91;5008354;28;20104;-58
2022/11/23 00:43:04;;;;;;;24.63;8.40;;;;;;;9.59;100.00;95904.63;5008256;28;20057;-57
2022/11/23 00:45:31;;;;;;;20.33;8.10;;;;;;;9.21;100.00;95839.00;5009005;28;20065;-57
2022/11/23 00:47:57;;;;;;;14.00;7.22;;;;;;;9.39;100.00;95864.69;5008452;28;20053;-58
2022/11/23 00:50:24;;;;;;;12.68;7.10;;;;;;;9.22;100.00;95868.22;5006905;28;20050;-56
2022/11/23 00:52:51;;;;;;;18.67;8.07;;;;;;;9.30;100.00;95875.34;5008360;28;20560;-57
2022/11/23 00:55:17;;;;;;;13.95;8.00;;;;;;;9.28;100.00;95877.69;5008494;28;20049;-57
2022/11/23 00:57:44;;;;;;;14.60;7.40;;;;;;;9.32;100.00;95889.56;5008212;28;20057;-58
2022/11/23 01:00:11;;;;;;;11.18;6.70;;;;;;;9.25;100.00;95889.53;5008659;28;20504;-58
2022/11/23 01:02:38;;;;;;;15.55;8.23;;;;;;;9.18;100.00;95878.47;5006845;28;20101;-59
2022/11/23 01:05:04;;;;;;;13.55;8.07;;;;;;;9.21;100.00;95870.16;5006349;28;20111;-59
2022/11/23 01:07:31;;;;;;;18.23;8.27;;;;;;;8.84;100.00;95819.16;5007741;28;20093;-58
2022/11/23 01:09:58;;;;;;;19.48;8.77;;;;;;;8.93;100.00;95861.00;5006648;28;20059;-59
2022/11/23 01:12:24;;;;;;;19.30;9.75;;;;;;;8.99;100.00;95859.47;5007543;28;20145;-58
2022/11/23 01:14:52;;;;;;;22.27;9.32;;;;;;;8.98;100.00;95853.13;5007561;28;20140;-57
2022/11/23 01:17:19;;;;;;;15.77;8.95;;;;;;;8.71;100.00;95815.16;5007470;28;20112;-58
2022/11/23 01:19:46;;;;;;;18.15;9.10;;;;;;;8.47;100.00;95810.31;5007821;28;20088;-59
2022/11/23 01:22:13;;;;;;;19.65;10.30;;;;;;;8.20;100.00;95756.56;5006652;28;20050;-58
2022/11/23 01:24:39;;;;;;;21.20;10.23;;;;;;;8.73;100.00;95851.44;5006813;28;20050;-58
2022/11/23 01:27:06;;;;;;;22.05;9.88;;;;;;;8.42;100.00;95774.81;5007868;28;20145;-59
2022/11/23 01:29:32;;;;;;;19.30;10.25;;;;;;;8.51;100.00;95781.56;4990248;28;20133;-58
2022/11/23 01:32:00;;;;;;;18.83;10.23;;;;;;;8.88;100.00;95831.00;4987497;28;20116;-58
2022/11/23 01:34:27;;;;;;;23.52;10.68;;;;;;;8.48;100.00;95740.94;4987901;28;20046;-58
2022/11/23 01:36:53;;;;;;;19.88;10.10;;;;;;;9.08;100.00;95818.44;4987440;28;20607;-58
2022/11/23 01:39:20;;;;;;;18.42;11.00;;;;;;;9.14;100.00;95816.88;4988193;28;20050;-58
2022/11/23 01:41:46;;;;;;;20.40;10.80;;;;;;;9.06;100.00;95804.22;4988148;28;20112;-58
2022/11/23 01:44:26;;;;;;;18.75;10.07;;;;;;;8.69;100.00;95740.22;4987699;28;20491;-58
2022/11/23 01:46:56;;;;;;;21.02;11.45;;;;;;;9.27;100.00;95815.34;4987748;28;20046;-58
2022/11/23 01:49:24;;;;;;;17.52;9.85;;;;;;;8.89;100.00;95745.03;4987801;28;20054;-59
2022/11/23 01:51:56;;;;;;;19.55;10.80;;;;;;;9.38;100.00;95810.63;4987545;28;20065;-59
2022/11/23 01:54:30;;;;;;;19.75;11.13;;;;;;;9.38;100.00;95805.09;4987622;28;20112;-58
2022/11/23 01:57:08;;;;;;;23.83;11.18;;;;;;;9.36;100.00;95777.06;4987577;28;20086;-58
2022/11/23 01:59:35;;;;;;;19.67;10.70;;;;;;;8.87;100.00;95752.09;4987528;28;20050;-58
2022/11/23 02:02:03;;;;;;;16.73;10.35;;;;;;;9.30;100.00;95789.69;4986926;28;20588;-58
2022/11/23 02:04:36;;;;;;;20.98;10.82;;;;;;;9.26;100.00;95794.44;4987709;28;20074;-60
2022/11/23 02:07:03;;;;;;;19.98;11.30;;;;;;;8.82;100.00;95711.09;4987253;28;20145;-59
2022/11/23 02:09:32;;;;;;;21.50;11.25;;;;;;;9.48;100.00;95786.94;4987470;28;20073;-59
2022/11/23 02:12:00;;;;;;;20.95;11.80;;;;;;;9.53;100.00;95773.50;4986781;28;20065;-59
2022/11/23 02:14:27;;;;;;;25.00;12.82;;;;;;;9.59;100.00;95769.19;4987409;28;20100;-60
2022/11/23 02:16:57;;;;;;;19.90;11.30;;;;;;;9.44;100.00;95736.41;4985798;28;20081;-59
2022/11/23 02:19:54;;;;;;;21.40;11.30;;;;;;;9.56;100.00;95745.09;4986619;28;20081;-58
2022/11/23 02:22:54;;;;;;;19.77;11.27;;;;;;;9.54;100.00;95754.97;4986800;28;20165;-60
2022/11/23 02:25:44;;;;;;;18.02;9.98;;;;;;;9.60;100.00;95770.75;4987405;28;20137;-59
2022/11/23 02:28:15;;;;;;;19.27;11.50;;;;;;;9.49;100.00;95761.66;4991391;28;20081;-59
2022/11/23 02:30:44;;;;;;;21.65;11.43;;;;;;;9.12;100.00;95725.31;5006214;28;20148;-61
2022/11/23 02:33:11;;;;;;;24.27;12.32;;;;;;;9.53;100.00;95767.97;5004992;28;20135;-60
2022/11/23 02:35:58;;;;;;;21.48;12.05;;;;;;;9.03;100.00;95691.78;5005197;28;20081;-59
2022/11/23 02:38:32;;;;;;;22.42;13.02;;;;;;;9.26;100.00;95730.88;5005926;28;20085;-59
2022/11/23 02:40:59;;;;;;;24.45;12.73;;;;;;;9.41;100.00;95757.31;5006351;28;20050;-59
2022/11/23 02:43:26;;;;;;;24.20;13.27;;;;;;;9.05;100.00;95697.72;5006115;28;20081;-59
2022/11/23 02:46:00;;;;;;;29.52;14.40;;;;;;;9.51;100.00;95758.50;5006092;28;20112;-58
2022/11/23 02:48:27;;;;;;;30.90;14.52;;;;;;;9.25;100.00;95718.22;5004497;28;20054;-61
2022/11/23 02:50:53;;;;;;;26.17;14.57;;;;;;;9.37;100.00;95748.25;5004218;28;20085;-59
2022/11/23 02:53:20;;;;;;;27.08;15.48;;;;;;;9.54;100.00;95747.47;5005572;28;20133;-60
2022/11/23 02:55:47;;;;;;;27.95;14.80;;;;;;;9.61;100.00;95741.91;5005858;28;20113;-59
2022/11/23 02:58:13;;;;;;;29.40;15.30;;;;;;;9.73;100.00;95733.25;5004527;28;20054;-60
2022/11/23 03:00:40;;;;;;;28.00;14.38;;;;;;;9.77;100.00;95728.47;5005794;28;20496;-58
2022/11/23 03:03:07;;;;;;;26.33;14.75;;;;;;;9.60;100.00;95711.91;5006100;28;20052;-58
2022/11/23 03:05:33;;;;;;;30.92;16.35;;;;;;;9.46;100.00;95685.09;5005575;28;20053;-58
2022/11/23 03:08:00;;;;;;;25.38;15.30;;;;;;;9.89;100.00;95730.84;5005614;28;20501;-59
2022/11/23 03:10:27;;;;;;;28.27;16.08;;;;;;;9.71;100.00;95707.97;5006038;28;20132;-58
2022/11/23 03:12:55;;;;;;;28.05;16.20;;;;;;;9.78;100.00;95699.66;5004052;28;20078;-59
2022/11/23 03:15:23;;;;;;;27.33;15.07;;;;;;;9.96;100.00;95732.78;5005310;28;20049;-59
2022/11/23 03:17:50;;;;;;;27.00;14.38;;;;;;;9.70;100.00;95678.75;5004306;28;20054;-60
2022/11/23 03:20:17;;;;;;;25.90;15.93;;;;;;;10.11;100.00;95731.63;5005817;28;20145;-59
2022/11/23 03:22:44;;;;;;;25.08;15.80;;;;;;;10.10;100.00;95724.53;5005367;28;20054;-59
2022/11/23 03:25:10;;;;;;;25.80;16.42;;;;;;;10.08;100.00;95722.16;5005889;28;20228;-58
2022/11/23 03:27:38;;;;;;;26.38;15.13;;;;;;;9.97;100.00;95726.88;5005333;28;20084;-60
2022/11/23 03:30:07;;;;;;;19.90;12.73;;;;;;;10.06;100.00;95730.03;4984927;28;20074;-58
2022/11/23 03:32:34;;;;;;;19.50;11.75;;;;;;;9.81;100.00;95696.09;4986179;28;20081;-58
2022/11/23 03:35:03;;;;;;;17.42;12.35;;;;;;;9.88;100.00;95729.25;4986036;28;20137;-58
2022/11/23 03:37:29;;;;;;;23.42;11.57;;;;;;;9.97;100.00;95729.66;4985585;28;20090;-57
2022/11/23 03:39:56;;;;;;;19.00;11.32;;;;;;;9.97;100.00;95720.56;4984448;28;20054;-58
2022/11/23 03:42:23;;;;;;;21.27;12.88;;;;;;;9.95;100.00;95718.19;4985414;28;20640;-58
2022/11/23 03:44:49;;;;;;;20.52;11.73;;;;;;;9.98;100.00;95717.41;4985714;28;20050;-58
2022/11/23 03:47:16;;;;;;;24.48;12.52;;;;;;;9.94;100.00;95715.81;4985276;28;20142;-58
2022/11/23 03:49:42;;;;;;;18.25;10.95;;;;;;;10.00;100.00;95706.72;4984619;28;20141;-58
2022/11/23 03:52:09;;;;;;;17.80;11.45;;;;;;;9.26;100.00;95597.47;4984557;28;20046;-58
2022/11/23 03:54:36;;;;;;;19.48;11.02;;;;;;;9.99;100.00;95691.31;4985764;28;20077;-58
2022/11/23 03:57:02;;;;;;;20.15;11.02;;;;;;;10.15;100.00;95710.25;4988989;28;20097;-58
2022/11/23 03:59:29;;;;;;;19.17;11.10;;;;;;;9.99;100.00;95696.84;4984703;28;20254;-58
2022/11/23 04:01:56;;;;;;;26.10;15.60;;;;;;;9.98;100.00;95689.72;4985360;28;20131;-59
2022/11/23 04:04:22;;;;;;;49.80;21.40;;;;;;;10.04;100.00;95699.19;4989047;28;20138;-59
2022/11/23 04:06:49;;;;;;;22.08;13.93;;;;;;;10.04;100.00;95699.19;4989597;28;20054;-58
2022/11/23 04:09:15;;;;;;;21.10;13.02;;;;;;;10.04;100.00;95698.41;4989479;28;20145;-59
2022/11/23 04:11:42;;;;;;;24.98;14.98;;;;;;;10.04;100.00;95703.94;4989274;28;20082;-59
2022/11/23 04:14:09;;;;;;;25.85;15.55;;;;;;;10.08;100.00;95704.75;4989454;28;20084;-59
2022/11/23 04:16:35;;;;;;;29.80;15.68;;;;;;;9.97;100.00;95702.00;4989079;28;20078;-58
2022/11/23 04:19:02;;;;;;;23.13;15.10;;;;;;;9.97;100.00;95701.19;4988761;28;20089;-60
2022/11/23 04:21:28;;;;;;;28.83;15.77;;;;;;;9.94;100.00;95704.75;4989227;28;20062;-58
2022/11/23 04:23:55;;;;;;;26.65;15.45;;;;;;;10.04;100.00;95698.41;4989300;28;20522;-61
2022/11/23 04:26:21;;;;;;;24.65;15.52;;;;;;;9.98;100.00;95695.25;4989088;28;20140;-60
2022/11/23 04:28:48;;;;;;;25.27;15.80;;;;;;;9.96;100.00;95697.63;4997755;28;20576;-58
2022/11/23 04:31:15;;;;;;;28.33;17.70;;;;;;;9.92;100.00;95696.88;5008580;28;20084;-59
2022/11/23 04:33:41;;;;;;;27.95;16.65;;;;;;;9.88;100.00;95687.78;5008925;28;20132;-58
2022/11/23 04:36:08;;;;;;;37.40;20.30;;;;;;;9.91;100.00;95692.50;5008601;28;20054;-59
2022/11/23 04:38:34;;;;;;;35.38;18.27;;;;;;;9.94;100.00;95688.94;5007242;28;20089;-59
2022/11/23 04:41:01;;;;;;;32.75;18.30;;;;;;;9.96;100.00;95686.56;5008182;28;20509;-60
2022/11/23 04:43:28;;;;;;;28.30;16.98;;;;;;;9.88;100.00;95668.41;5008176;28;21862;-59
2022/11/23 04:45:54;;;;;;;32.40;16.85;;;;;;;10.03;100.00;95685.75;5006815;28;20588;-59
2022/11/23 04:48:21;;;;;;;28.25;16.77;;;;;;;10.03;100.00;95678.25;5007003;28;20540;-59
2022/11/23 04:50:47;;;;;;;29.05;17.50;;;;;;;9.69;100.00;95638.44;5008485;28;20136;-59
2022/11/23 04:53:19;;;;;;;30.17;18.42;;;;;;;9.78;100.00;95621.44;5008448;28;20049;-59
2022/11/23 04:55:46;;;;;;;34.63;19.13;;;;;;;10.08;100.00;95666.81;5007008;28;20100;-59
2022/11/23 04:58:13;;;;;;;39.25;22.52;;;;;;;10.14;100.00;95664.41;5007666;28;20086;-59
2022/11/23 05:00:39;;;;;;;48.40;23.80;;;;;;;9.98;100.00;95648.25;5008210;28;20077;-59
2022/11/23 05:03:06;;;;;;;42.67;19.25;;;;;;;10.15;100.00;95666.78;5007997;28;20054;-59
2022/11/23 05:05:33;;;;;;;33.95;17.55;;;;;;;9.86;100.00;95621.03;5008261;28;20104;-58
2022/11/23 05:07:59;;;;;;;35.38;18.95;;;;;;;10.19;100.00;95659.28;5006536;28;20131;-59
2022/11/23 05:10:26;;;;;;;40.17;19.25;;;;;;;10.15;100.00;95665.97;5006262;28;20057;-58
2022/11/23 05:12:52;;;;;;;42.97;22.58;;;;;;;10.11;100.00;95671.56;5007530;28;20100;-58
2022/11/23 05:15:19;;;;;;;36.30;18.80;;;;;;;10.13;100.00;95671.91;5006026;28;20136;-58
2022/11/23 05:17:45;;;;;;;34.47;18.52;;;;;;;10.06;100.00;95660.88;5007337;28;20108;-59
2022/11/23 05:20:12;;;;;;;33.47;17.10;;;;;;;10.06;100.00;95652.56;5006216;28;20133;-58
2022/11/23 05:22:39;;;;;;;35.42;20.77;;;;;;;10.17;100.00;95678.25;5007293;28;20156;-58
2022/11/23 05:25:06;;;;;;;109.57;60.05;;;;;;;10.18;100.00;95671.50;5007717;28;20165;-59
2022/11/23 05:27:33;;;;;;;88.90;45.53;;;;;;;10.17;100.00;95681.00;5007302;28;20595;-58
2022/11/23 05:30:00;;;;;;;72.32;38.00;;;;;;;10.24;100.00;95685.72;4989525;28;20089;-59
2022/11/23 05:32:27;;;;;;;52.03;30.90;;;;;;;10.28;100.00;95686.50;4987492;28;20492;-58
2022/11/23 05:34:53;;;;;;;54.85;31.65;;;;;;;10.04;100.00;95663.22;4988291;28;20093;-59
2022/11/23 05:37:20;;;;;;;62.05;31.83;;;;;;;10.20;100.00;95685.75;4987571;28;20093;-58
2022/11/23 05:39:46;;;;;;;64.68;32.88;;;;;;;10.10;100.00;95681.03;4987815;28;20169;-59
2022/11/23 05:42:13;;;;;;;65.18;29.75;;;;;;;10.23;100.00;95701.53;4987418;28;20132;-58
2022/11/23 05:44:40;;;;;;;55.55;27.73;;;;;;;10.17;100.00;95669.94;4986123;28;20105;-59
2022/11/23 05:47:07;;;;;;;50.67;25.17;;;;;;;10.25;100.00;95677.03;4987327;28;20089;-58
2022/11/23 05:49:33;;;;;;;45.28;24.95;;;;;;;10.30;100.00;95678.59;4985950;28;20058;-59
2022/11/23 05:52:00;;;;;;;53.05;25.55;;;;;;;10.08;100.00;95613.47;4987338;28;20050;-58
2022/11/23 05:54:27;;;;;;;49.03;23.73;;;;;;;10.45;100.00;95675.34;4986249;28;20082;-58
2022/11/23 05:56:53;;;;;;;53.75;24.80;;;;;;;10.46;100.00;95676.91;5019214;28;20057;-59
2022/11/23 05:59:20;;;;;;;55.10;24.98;;;;;;;10.44;100.00;95676.56;5024531;28;20512;-58
2022/11/23 06:01:46;;;;;;;56.83;25.90;;;;;;;10.34;100.00;95644.16;5024588;28;20086;-59
2022/11/23 06:04:13;;;;;;;57.42;27.02;;;;;;;10.30;100.00;95637.09;5024631;28;20132;-58
2022/11/23 06:06:40;;;;;;;67.70;31.60;;;;;;;10.60;100.00;95687.16;5024743;28;20095;-58
2022/11/23 06:09:06;;;;;;;82.35;34.05;;;;;;;10.25;100.00;95616.16;5024654;28;20072;-58
2022/11/23 06:11:34;;;;;;;62.60;31.73;;;;;;;10.65;100.00;95679.19;5024753;28;20085;-59
2022/11/23 06:14:00;;;;;;;62.13;29.30;;;;;;;10.62;100.00;95704.94;5024014;28;20049;-58
2022/11/23 06:16:27;;;;;;;52.83;25.88;;;;;;;10.70;100.00;95709.25;5026460;28;20607;-58
2022/11/23 06:18:54;;;;;;;50.33;26.00;;;;;;;10.65;100.00;95729.03;5026401;28;20151;-59
2022/11/23 06:21:20;;;;;;;40.55;23.60;;;;;;;10.75;100.00;95715.56;5026320;28;20077;-59
2022/11/23 06:23:47;;;;;;;45.20;20.60;;;;;;;10.66;100.00;95702.16;5026150;28;20049;-58
2022/11/23 06:26:14;;;;;;;42.10;19.70;;;;;;;10.62;100.00;95684.78;5025159;28;20519;-59
2022/11/23 06:28:41;;;;;;;43.35;22.05;;;;;;;10.66;100.00;95691.06;5019751;28;20460;-59
2022/11/23 06:31:08;;;;;;;44.55;23.17;;;;;;;10.65;100.00;95690.28;5006206;28;20113;-58
2022/11/23 06:33:35;;;;;;;69.57;27.92;;;;;;;10.70;100.00;95687.09;5006283;28;20141;-59
2022/11/23 06:36:03;;;;;;;68.72;31.05;;;;;;;10.26;100.00;95628.78;5006058;28;20101;-59
2022/11/23 06:38:29;;;;;;;66.07;32.33;;;;;;;10.49;100.00;95748.13;5006268;28;20085;-59
2022/11/23 06:41:00;;;;;;;75.82;33.13;;;;;;;10.53;100.00;95699.03;5006229;28;20501;-60
2022/11/23 06:43:27;;;;;;;59.80;28.85;;;;;;;10.56;100.00;95684.41;5006489;28;20586;-59
2022/11/23 06:45:55;;;;;;;61.63;28.23;;;;;;;10.52;100.00;95699.44;5006626;28;20532;-59
2022/11/23 06:48:22;;;;;;;60.13;28.45;;;;;;;10.47;100.00;95700.66;4999910;28;20140;-60
2022/11/23 06:50:49;;;;;;;56.08;24.85;;;;;;;9.85;100.00;95574.41;5003903;28;20050;-59
2022/11/23 06:53:15;;;;;;;75.60;32.00;;;;;;;9.47;100.00;95518.06;5010894;28;20057;-61
2022/11/23 06:55:42;;;;;;;67.63;31.15;;;;;;;10.74;100.00;95706.47;4985708;28;20615;-63
2022/11/23 06:58:09;;;;;;;64.68;30.85;;;;;;;10.78;100.00;95714.75;4984397;28;20481;-60
2022/11/23 07:00:35;;;;;;;61.38;30.33;;;;;;;10.92;100.00;95714.66;4995293;28;20136;-63
2022/11/23 07:03:02;;;;;;;56.47;28.38;;;;;;;10.89;100.00;95721.03;5013144;28;20163;-62
2022/11/23 07:05:28;;;;;;;60.33;27.42;;;;;;;10.43;100.00;95669.41;5005506;28;20089;-61
2022/11/23 07:07:56;;;;;;;66.10;29.50;;;;;;;10.89;100.00;95726.56;5003390;28;20678;-63
2022/11/23 07:10:22;;;;;;;65.55;28.17;;;;;;;11.04;100.00;95726.06;5006566;28;20108;-63
2022/11/23 07:12:49;;;;;;;61.63;28.08;;;;;;;10.73;100.00;95665.31;5005174;28;20153;-60
2022/11/23 07:15:17;;;;;;;63.45;30.90;;;;;;;10.40;100.00;95612.09;5014537;28;20560;-61
2022/11/23 07:17:43;;;;;;;75.88;35.65;;;;;;;10.50;100.00;95632.63;4995435;28;20147;-67
2022/11/23 07:20:12;;;;;;;88.43;44.10;;;;;;;11.09;100.00;95724.84;4976382;28;20077;-63
2022/11/23 07:22:38;;;;;;;95.50;42.97;;;;;;;11.09;100.00;95741.47;4977818;28;20081;-71
2022/11/23 07:25:06;;;;;;;80.80;38.85;;;;;;;10.88;100.00;95705.56;4977154;28;20161;-63
2022/11/23 07:27:32;;;;;;;74.38;31.60;;;;;;;11.06;100.00;95736.75;4984225;28;20495;-59
2022/11/23 07:29:59;;;;;;;62.92;28.45;;;;;;;11.02;100.00;95708.28;4967886;28;20078;-57
2022/11/23 07:32:25;;;;;;;67.38;31.33;;;;;;;11.17;100.00;95731.94;4974215;28;20181;-67
2022/11/23 07:34:52;;;;;;;70.30;33.92;;;;;;;11.21;100.00;95721.59;4982683;28;20054;-56
2022/11/23 07:37:19;;;;;;;73.20;35.28;;;;;;;10.92;100.00;95664.81;4967160;28;20587;-58
2022/11/23 07:39:45;;;;;;;72.63;36.70;;;;;;;10.90;100.00;95662.44;4996270;28;20158;-61
2022/11/23 07:42:23;;;;;;;70.97;32.72;;;;;;;11.37;100.00;95714.38;4980589;28;20049;-58
2022/11/23 07:45:04;;;;;;;73.03;30.60;;;;;;;11.38;100.00;95687.44;4971397;28;20457;-58
2022/11/23 07:47:31;;;;;;;71.70;28.70;;;;;;;11.53;100.00;95708.28;4973680;28;20050;-57
2022/11/23 07:49:58;;;;;;;69.47;29.40;;;;;;;11.45;100.00;95699.25;4980842;28;20050;-55
2022/11/23 07:52:25;;;;;;;57.65;24.75;;;;;;;11.47;100.00;95698.84;4989132;28;20081;-54
2022/11/23 07:54:51;;;;;;;70.20;28.90;;;;;;;11.47;100.00;95762.63;4986804;28;20045;-56
2022/11/23 07:57:18;;;;;;;59.83;26.73;;;;;;;11.67;100.00;95717.31;4985587;28;20597;-54
2022/11/23 07:59:44;;;;;;;57.55;26.70;;;;;;;11.73;100.00;95732.31;4987386;28;20921;-54
2022/11/23 08:02:14;;;;;;;59.22;28.15;;;;;;;11.41;100.00;95686.63;4987077;28;20050;-57
2022/11/23 08:04:41;;;;;;;59.30;28.52;;;;;;;11.68;100.00;95707.78;4970768;28;20430;-54
2022/11/23 08:07:08;;;;;;;67.75;31.48;;;;;;;11.39;100.00;95662.06;4987063;28;20540;-57
2022/11/23 08:09:35;;;;;;;70.90;31.02;;;;;;;11.59;100.00;95696.34;4987364;28;20393;-57
2022/11/23 08:12:02;;;;;;;70.43;32.63;;;;;;;9.73;100.00;95357.22;4986604;28;20125;-55
2022/11/23 08:14:29;;;;;;;61.55;29.65;;;;;;;12.10;100.00;95739.91;4985194;28;20058;-56
2022/11/23 08:16:56;;;;;;;65.38;31.23;;;;;;;11.58;100.00;95644.06;4986960;28;20050;-55
2022/11/23 08:19:23;;;;;;;69.97;31.88;;;;;;;12.20;100.00;95734.22;4985077;28;20104;-56
2022/11/23 08:21:49;;;;;;;77.38;36.10;;;;;;;12.17;100.00;95728.75;4987936;28;20046;-59
2022/11/23 08:24:16;;;;;;;63.83;30.85;;;;;;;12.36;100.00;95717.00;4989471;28;20060;-58
2022/11/23 08:26:43;;;;;;;69.05;31.77;;;;;;;12.34;100.00;95715.84;4987297;28;20489;-60
2022/11/23 08:29:09;;;;;;;76.20;34.00;;;;;;;12.28;100.00;95721.09;4987258;28;20108;-58
2022/11/23 08:31:36;;;;;;;67.15;32.45;;;;;;;12.33;100.00;95709.50;4986493;28;20053;-59
2022/11/23 08:34:03;;;;;;;48.88;27.20;;;;;;;12.36;100.00;95719.78;5002088;28;20107;-60
2022/11/23 08:36:29;;;;;;;52.72;28.63;;;;;;;12.49;100.00;95718.06;5006256;28;20115;-58
2022/11/23 08:38:56;;;;;;;49.60;27.13;;;;;;;12.12;100.00;95671.66;5003704;28;20575;-58
2022/11/23 08:41:23;;;;;;;62.55;31.65;;;;;;;12.08;100.00;95647.94;5003741;28;20049;-60
2022/11/23 08:43:50;;;;;;;61.50;31.50;;;;;;;12.35;100.00;95678.53;4989800;28;20050;-58
2022/11/23 08:46:18;;;;;;;59.00;28.90;;;;;;;12.37;100.00;95721.38;4977263;28;20599;-56
2022/11/23 08:48:44;;;;;;;52.65;28.02;;;;;;;12.41;100.00;95715.78;4987380;28;20128;-56
2022/11/23 08:51:11;;;;;;;57.85;28.40;;;;;;;11.95;100.00;95656.00;4993865;28;20046;-57
2022/11/23 08:53:38;;;;;;;51.00;26.38;;;;;;;12.39;100.00;95696.75;5002227;28;20816;-60
2022/11/23 08:56:06;;;;;;;67.45;32.63;;;;;;;11.83;100.00;95634.34;4983981;28;20103;-61
2022/11/23 08:58:33;;;;;;;70.35;32.97;;;;;;;12.27;100.00;95702.84;4970625;28;20576;-58
2022/11/23 09:01:00;;;;;;;68.97;32.22;;;;;;;12.27;100.00;95688.94;4971331;28;20057;-58
2022/11/23 09:03:26;;;;;;;78.47;31.27;;;;;;;12.40;100.00;95698.31;4998777;28;20072;-58
2022/11/23 09:05:57;;;;;;;65.57;28.02;;;;;;;12.39;100.00;95691.22;4993376;28;20072;-59
2022/11/23 09:08:24;;;;;;;58.75;26.95;;;;;;;11.90;100.00;95636.25;4986979;28;20252;-61
2022/11/23 09:10:50;;;;;;;60.95;26.35;;;;;;;12.26;100.00;95697.69;4988086;28;20046;-58
2022/11/23 09:13:17;;;;;;;57.40;26.58;;;;;;;11.98;100.00;95676.59;4973247;28;20587;-59
2022/11/23 09:15:44;;;;;;;56.25;26.25;;;;;;;12.42;100.00;95701.50;4989113;28;20154;-58
2022/11/23 09:18:10;;;;;;;68.57;30.10;;;;;;;12.11;100.00;95647.09;4969895;28;20054;-59
2022/11/23 09:20:38;;;;;;;63.75;29.65;;;;;;;12.22;100.00;95642.22;4969933;28;20062;-58
2022/11/23 09:23:05;;;;;;;67.10;29.08;;;;;;;12.37;100.00;95649.19;4986191;28;20049;-60
2022/11/23 09:25:39;;;;;;;59.20;27.15;;;;;;;12.00;100.00;95568.72;5000255;28;20045;-59
2022/11/23 09:28:05;;;;;;;57.30;27.65;;;;;;;12.96;100.00;95694.81;4996808;28;20050;-61
2022/11/23 09:30:32;;;;;;;56.00;25.92;;;;;;;13.01;100.00;95694.38;4973557;28;20056;-57
2022/11/23 09:32:59;;;;;;;72.32;32.55;;;;;;;12.44;100.00;95571.31;4974998;28;20058;-60
2022/11/23 09:35:26;;;;;;;72.45;34.13;;;;;;;13.27;100.00;95685.25;4973039;28;20054;-60
2022/11/23 09:37:57;;;;;;;64.95;34.60;;;;;;;13.35;100.00;95681.16;4973690;28;20104;-56
2022/11/23 09:40:29;;;;;;;63.80;34.65;;;;;;;11.85;100.00;95423.09;4996285;28;20060;-57
2022/11/23 09:43:25;;;;;;;46.58;23.42;;;;;;;13.44;100.00;95678.63;4984497;28;20130;-58
2022/11/23 09:45:54;;;;;;;46.17;22.65;;;;;;;13.60;100.00;95687.13;4990739;28;20058;-56
2022/11/23 09:48:39;;;;;;;46.05;23.88;;;;;;;13.65;100.00;95683.84;4988894;28;20512;-62
2022/11/23 09:51:17;;;;;;;46.92;24.30;;;;;;;13.64;100.00;95682.25;4985382;28;20065;-65
2022/11/23 09:53:45;;;;;;;44.65;23.05;;;;;;;13.48;100.00;95657.09;4988036;28;20086;-56
2022/11/23 09:56:22;;;;;;;43.80;22.15;;;;;;;13.18;100.00;95607.13;4986224;28;20061;-64
2022/11/23 09:58:54;;;;;;;39.22;20.95;;;;;;;13.25;100.00;95654.31;4986647;28;20096;-65
2022/11/23 10:01:21;;;;;;;45.50;22.58;;;;;;;11.85;100.00;95420.31;4984701;28;20053;-61
2022/11/23 10:03:48;;;;;;;36.97;18.42;;;;;;;13.21;100.00;95575.72;4990096;28;20123;-62
2022/11/23 10:06:21;;;;;;;31.55;17.10;;;;;;;13.82;100.00;95642.19;4998971;28;20238;-57
2022/11/23 10:09:09;;;;;;;39.22;20.00;;;;;;;13.97;100.00;95643.53;4996514;28;20153;-58
2022/11/23 10:11:58;;;;;;;42.85;21.27;;;;;;;14.12;100.00;95633.69;5003488;28;20308;-65
2022/11/23 10:14:43;;;;;;;40.85;21.52;;;;;;;14.33;100.00;95634.09;5011662;28;20532;-60
2022/11/23 10:17:22;;;;;;;49.17;26.52;;;;;;;14.50;97.02;95637.72;5005972;28;20524;-56
2022/11/23 10:20:17;;;;;;;69.93;33.70;;;;;;;14.40;96.70;95616.44;5008796;28;20137;-64
2022/11/23 10:22:57;;;;;;;50.13;26.30;;;;;;;14.62;95.29;95639.88;5006836;28;20054;-62
2022/11/23 10:25:28;;;;;;;43.28;25.42;;;;;;;14.65;95.03;95633.44;5022781;28;20525;-60
2022/11/23 10:28:00;;;;;;;42.30;24.55;;;;;;;14.78;94.56;95629.53;5012508;28;20069;-59
2022/11/23 10:30:26;;;;;;;46.15;26.10;;;;;;;15.03;93.61;95631.78;5005618;28;20057;-59
2022/11/23 10:33:01;;;;;;;40.13;24.77;;;;;;;15.25;92.43;95624.47;5008740;28;20563;-62
2022/11/23 10:35:33;;;;;;;38.13;22.15;;;;;;;15.53;91.76;95623.03;4995081;28;20066;-59
2022/11/23 10:38:12;;;;;;;38.10;23.45;;;;;;;15.54;89.55;95611.41;5009097;28;20504;-59
2022/11/23 10:40:58;;;;;;;;;;;;;;;13.96;87.16;95324.63;4995215;28;20595;-59
2022/11/23 10:43:31;;;;;;;33.78;21.45;;;;;;;15.94;86.90;95639.91;5006849;28;20104;-60
2022/11/23 10:46:33;;;;;;;31.55;19.33;;;;;;;16.00;86.74;95671.66;5019485;28;20512;-57
2022/11/23 10:49:17;;;;;;;32.88;20.02;;;;;;;16.23;82.93;95624.72;5008080;28;20108;-59
2022/11/23 10:52:04;;;;;;;33.13;19.52;;;;;;;16.14;81.92;95632.97;5001501;28;20085;-59
2022/11/23 10:54:33;;;;;;;28.73;18.00;;;;;;;16.17;82.14;95629.28;5001513;28;20085;-58
2022/11/23 10:57:19;;;;;;;29.05;17.75;;;;;;;16.06;82.58;95628.78;4997203;28;20135;-62
2022/11/23 10:59:59;;;;;;;34.88;23.42;;;;;;;16.24;80.90;95626.31;4985088;28;20150;-63
2022/11/23 11:02:26;;;;;;;29.00;18.00;;;;;;;14.01;81.08;95304.59;4985499;28;20097;-62
2022/11/23 11:05:20;;;;;;;33.90;19.35;;;;;;;15.75;82.57;95599.72;5012706;28;20057;-56
2022/11/23 11:07:52;;;;;;;31.70;17.92;;;;;;;15.80;82.17;95618.72;5015204;28;20045;-54
2022/11/23 11:10:44;;;;;;;19.38;12.90;;;;;;;15.74;81.65;95626.06;5013473;28;20129;-56
2022/11/23 11:13:30;;;;;;;21.08;12.63;;;;;;;15.54;82.76;95628.16;5018641;28;20172;-56
2022/11/23 11:15:57;;;;;;;18.88;11.48;;;;;;;15.43;82.58;95624.84;5005086;28;20135;-56
2022/11/23 11:18:27;;;;;;;16.92;10.38;;;;;;;15.55;82.21;95624.16;5005197;28;20132;-55
2022/11/23 11:21:00;;;;;;;20.10;10.88;;;;;;;15.66;82.19;95619.09;5004884;28;20096;-57
2022/11/23 11:23:29;;;;;;;20.88;13.45;;;;;;;15.72;83.15;95622.94;5004639;28;20141;-54